sensor_id;sensor_type;location;lat;lon;timestamp;P1;durP1;ratioP1;P2;durP2;ratioP2
27257;SDS011;62045;49.986;8.672;2023-03-19T00:03:56;6.40;;;3.50;;
27257;SDS011;62045;49.986;8.672;2023-03-19T00:08:56;4.78;;;2.92;;
27257;SDS011;62045;49.986;8.672;2023-03-19T00:13:57;4.90;;;2.85;;
27257;SDS011;62045;49.986;8.672;2023-03-19T00:18:59;7.45;;;3.63;;
27257;SDS011;62045;49.986;8.672;2023-03-19T00:24:00;4.40;;;2.78;;
27257;SDS011;62045;49.986;8.672;2023-03-19T00:29:01;4.72;;;2.55;;
27257;SDS011;62045;49.986;8.672;2023-03-19T00:34:03;5.80;;;2.67;;
27257;SDS011;62045;49.986;8.672;2023-03-19T00:39:04;3.78;;;2.20;;
27257;SDS011;62045;49.986;8.672;2023-03-19T00:44:08;5.50;;;2.88;;
27257;SDS011;62045;49.986;8.672;2023-03-19T00:49:10;5.03;;;2.60;;
27257;SDS011;62045;49.986;8.672;2023-03-19T00:54:11;3.53;;;2.28;;
27257;SDS011;62045;49.986;8.672;2023-03-19T00:59:12;4.82;;;3.00;;
27257;SDS011;62045;49.986;8.672;2023-03-19T01:04:14;4.70;;;2.80;;
27257;SDS011;62045;49.986;8.672;2023-03-19T01:09:15;8.13;;;3.25;;
27257;SDS011;62045;49.986;8.672;2023-03-19T01:14:16;4.47;;;2.45;;
27257;SDS011;62045;49.986;8.672;2023-03-19T01:19:18;4.65;;;2.80;;
27257;SDS011;62045;49.986;8.672;2023-03-19T01:24:19;4.75;;;2.83;;
27257;SDS011;62045;49.986;8.672;2023-03-19T01:29:25;4.28;;;2.50;;
27257;SDS011;62045;49.986;8.672;2023-03-19T01:34:28;4.75;;;2.70;;
27257;SDS011;62045;49.986;8.672;2023-03-19T01:39:35;4.50;;;2.85;;
27257;SDS011;62045;49.986;8.672;2023-03-19T01:44:40;4.80;;;2.60;;
27257;SDS011;62045;49.986;8.672;2023-03-19T01:50:00;4.50;;;2.70;;
27257;SDS011;62045;49.986;8.672;2023-03-19T01:55:02;3.78;;;2.50;;
27257;SDS011;62045;49.986;8.672;2023-03-19T02:00:25;4.30;;;2.45;;
27257;SDS011;62045;49.986;8.672;2023-03-19T02:05:29;4.80;;;2.58;;
27257;SDS011;62045;49.986;8.672;2023-03-19T02:10:37;4.55;;;2.60;;
27257;SDS011;62045;49.986;8.672;2023-03-19T02:15:39;4.47;;;2.60;;
27257;SDS011;62045;49.986;8.672;2023-03-19T02:20:44;3.85;;;2.50;;
27257;SDS011;62045;49.986;8.672;2023-03-19T02:25:54;3.70;;;2.20;;
27257;SDS011;62045;49.986;8.672;2023-03-19T02:30:59;4.45;;;2.63;;
27257;SDS011;62045;49.986;8.672;2023-03-19T02:36:00;4.18;;;2.33;;
27257;SDS011;62045;49.986;8.672;2023-03-19T02:41:04;4.13;;;2.35;;
27257;SDS011;62045;49.986;8.672;2023-03-19T02:46:07;4.50;;;2.40;;
27257;SDS011;62045;49.986;8.672;2023-03-19T02:51:10;3.50;;;2.03;;
27257;SDS011;62045;49.986;8.672;2023-03-19T02:56:12;6.05;;;2.53;;
27257;SDS011;62045;49.986;8.672;2023-03-19T03:01:13;4.32;;;2.63;;
27257;SDS011;62045;49.986;8.672;2023-03-19T03:06:14;4.85;;;2.58;;
27257;SDS011;62045;49.986;8.672;2023-03-19T03:11:16;3.92;;;2.60;;
27257;SDS011;62045;49.986;8.672;2023-03-19T03:16:16;4.03;;;2.10;;
27257;SDS011;62045;49.986;8.672;2023-03-19T03:21:17;4.38;;;2.40;;
27257;SDS011;62045;49.986;8.672;2023-03-19T03:26:19;4.03;;;2.10;;
27257;SDS011;62045;49.986;8.672;2023-03-19T03:31:20;3.75;;;2.33;;
27257;SDS011;62045;49.986;8.672;2023-03-19T03:36:21;3.70;;;2.05;;
27257;SDS011;62045;49.986;8.672;2023-03-19T03:41:24;3.83;;;2.03;;
27257;SDS011;62045;49.986;8.672;2023-03-19T03:46:25;3.75;;;2.17;;
27257;SDS011;62045;49.986;8.672;2023-03-19T03:51:26;4.63;;;2.30;;
27257;SDS011;62045;49.986;8.672;2023-03-19T03:56:28;3.70;;;2.45;;
27257;SDS011;62045;49.986;8.672;2023-03-19T04:01:29;4.28;;;2.25;;
27257;SDS011;62045;49.986;8.672;2023-03-19T04:06:30;3.85;;;2.33;;
27257;SDS011;62045;49.986;8.672;2023-03-19T04:11:52;4.43;;;2.13;;
27257;SDS011;62045;49.986;8.672;2023-03-19T04:16:53;3.85;;;2.25;;
27257;SDS011;62045;49.986;8.672;2023-03-19T04:21:54;4.22;;;2.20;;
27257;SDS011;62045;49.986;8.672;2023-03-19T04:26:57;4.85;;;2.70;;
27257;SDS011;62045;49.986;8.672;2023-03-19T04:31:57;4.22;;;2.38;;
27257;SDS011;62045;49.986;8.672;2023-03-19T04:36:58;3.60;;;2.10;;
27257;SDS011;62045;49.986;8.672;2023-03-19T04:42:01;3.42;;;1.95;;
27257;SDS011;62045;49.986;8.672;2023-03-19T04:47:05;3.65;;;2.03;;
27257;SDS011;62045;49.986;8.672;2023-03-19T04:52:19;3.33;;;2.08;;
27257;SDS011;62045;49.986;8.672;2023-03-19T04:57:23;3.05;;;1.98;;
27257;SDS011;62045;49.986;8.672;2023-03-19T05:02:26;3.40;;;1.95;;
27257;SDS011;62045;49.986;8.672;2023-03-19T05:07:28;4.88;;;2.60;;
27257;SDS011;62045;49.986;8.672;2023-03-19T05:12:34;4.03;;;1.92;;
27257;SDS011;62045;49.986;8.672;2023-03-19T05:17:35;4.47;;;2.40;;
27257;SDS011;62045;49.986;8.672;2023-03-19T05:22:52;4.22;;;2.08;;
27257;SDS011;62045;49.986;8.672;2023-03-19T05:27:58;4.18;;;2.35;;
27257;SDS011;62045;49.986;8.672;2023-03-19T05:32:59;3.65;;;2.33;;
27257;SDS011;62045;49.986;8.672;2023-03-19T05:38:09;4.00;;;2.20;;
27257;SDS011;62045;49.986;8.672;2023-03-19T05:43:12;3.42;;;2.28;;
27257;SDS011;62045;49.986;8.672;2023-03-19T05:48:13;4.37;;;2.23;;
27257;SDS011;62045;49.986;8.672;2023-03-19T05:53:18;4.15;;;1.95;;
27257;SDS011;62045;49.986;8.672;2023-03-19T05:58:34;3.83;;;2.00;;
27257;SDS011;62045;49.986;8.672;2023-03-19T06:03:35;2.88;;;1.73;;
27257;SDS011;62045;49.986;8.672;2023-03-19T06:08:40;3.13;;;1.75;;
27257;SDS011;62045;49.986;8.672;2023-03-19T06:13:55;2.67;;;1.65;;
27257;SDS011;62045;49.986;8.672;2023-03-19T06:18:57;4.13;;;1.80;;
27257;SDS011;62045;49.986;8.672;2023-03-19T06:23:57;3.83;;;2.00;;
27257;SDS011;62045;49.986;8.672;2023-03-19T06:29:05;3.60;;;1.85;;
27257;SDS011;62045;49.986;8.672;2023-03-19T06:34:06;3.20;;;1.58;;
27257;SDS011;62045;49.986;8.672;2023-03-19T06:39:13;3.25;;;1.65;;
27257;SDS011;62045;49.986;8.672;2023-03-19T06:44:15;3.50;;;2.10;;
27257;SDS011;62045;49.986;8.672;2023-03-19T06:49:16;3.40;;;1.60;;
27257;SDS011;62045;49.986;8.672;2023-03-19T06:54:17;3.05;;;1.80;;
27257;SDS011;62045;49.986;8.672;2023-03-19T06:59:19;3.30;;;1.88;;
27257;SDS011;62045;49.986;8.672;2023-03-19T07:04:20;4.18;;;1.83;;
27257;SDS011;62045;49.986;8.672;2023-03-19T07:09:21;2.85;;;1.60;;
27257;SDS011;62045;49.986;8.672;2023-03-19T07:14:23;3.03;;;1.80;;
27257;SDS011;62045;49.986;8.672;2023-03-19T07:19:24;3.08;;;1.63;;
27257;SDS011;62045;49.986;8.672;2023-03-19T07:24:25;3.58;;;1.90;;
27257;SDS011;62045;49.986;8.672;2023-03-19T07:29:27;2.97;;;1.90;;
27257;SDS011;62045;49.986;8.672;2023-03-19T07:34:28;2.72;;;1.50;;
27257;SDS011;62045;49.986;8.672;2023-03-19T07:39:29;2.95;;;1.77;;
27257;SDS011;62045;49.986;8.672;2023-03-19T07:44:32;3.08;;;1.73;;
27257;SDS011;62045;49.986;8.672;2023-03-19T07:49:32;3.45;;;1.83;;
27257;SDS011;62045;49.986;8.672;2023-03-19T07:54:33;2.72;;;1.52;;
27257;SDS011;62045;49.986;8.672;2023-03-19T07:59:35;2.85;;;1.52;;
27257;SDS011;62045;49.986;8.672;2023-03-19T08:04:36;2.33;;;1.25;;
27257;SDS011;62045;49.986;8.672;2023-03-19T08:09:37;3.58;;;1.80;;
27257;SDS011;62045;49.986;8.672;2023-03-19T08:14:40;2.80;;;1.73;;
27257;SDS011;62045;49.986;8.672;2023-03-19T08:19:41;3.70;;;1.65;;
27257;SDS011;62045;49.986;8.672;2023-03-19T08:24:41;4.72;;;1.90;;
27257;SDS011;62045;49.986;8.672;2023-03-19T08:29:44;3.03;;;1.70;;
27257;SDS011;62045;49.986;8.672;2023-03-19T08:34:45;3.28;;;2.00;;
27257;SDS011;62045;49.986;8.672;2023-03-19T08:39:45;3.70;;;2.28;;
27257;SDS011;62045;49.986;8.672;2023-03-19T08:44:47;3.60;;;2.00;;
27257;SDS011;62045;49.986;8.672;2023-03-19T08:49:48;6.43;;;1.88;;
27257;SDS011;62045;49.986;8.672;2023-03-19T08:54:49;5.82;;;2.10;;
27257;SDS011;62045;49.986;8.672;2023-03-19T08:59:52;9.02;;;1.92;;
27257;SDS011;62045;49.986;8.672;2023-03-19T09:04:53;5.03;;;1.80;;
27257;SDS011;62045;49.986;8.672;2023-03-19T09:09:53;9.00;;;3.58;;
27257;SDS011;62045;49.986;8.672;2023-03-19T09:14:55;5.75;;;2.35;;
27257;SDS011;62045;49.986;8.672;2023-03-19T09:19:56;5.80;;;2.33;;
27257;SDS011;62045;49.986;8.672;2023-03-19T09:24:57;5.70;;;1.77;;
27257;SDS011;62045;49.986;8.672;2023-03-19T09:29:59;5.70;;;2.03;;
27257;SDS011;62045;49.986;8.672;2023-03-19T09:34:59;5.30;;;2.10;;
27257;SDS011;62045;49.986;8.672;2023-03-19T09:40:00;2.10;;;1.20;;
27257;SDS011;62045;49.986;8.672;2023-03-19T09:45:02;3.75;;;2.08;;
27257;SDS011;62045;49.986;8.672;2023-03-19T09:50:05;4.38;;;1.90;;
27257;SDS011;62045;49.986;8.672;2023-03-19T09:55:14;8.43;;;2.80;;
27257;SDS011;62045;49.986;8.672;2023-03-19T10:00:29;5.43;;;1.88;;
27257;SDS011;62045;49.986;8.672;2023-03-19T10:05:35;5.03;;;1.50;;
27257;SDS011;62045;49.986;8.672;2023-03-19T10:10:50;3.45;;;1.45;;
27257;SDS011;62045;49.986;8.672;2023-03-19T10:16:04;3.33;;;1.40;;
27257;SDS011;62045;49.986;8.672;2023-03-19T10:21:11;4.18;;;1.73;;
27257;SDS011;62045;49.986;8.672;2023-03-19T10:26:17;5.32;;;1.55;;
27257;SDS011;62045;49.986;8.672;2023-03-19T10:31:27;3.13;;;1.45;;
27257;SDS011;62045;49.986;8.672;2023-03-19T10:36:29;3.28;;;1.25;;
27257;SDS011;62045;49.986;8.672;2023-03-19T10:41:44;4.40;;;1.70;;
27257;SDS011;62045;49.986;8.672;2023-03-19T10:46:50;3.05;;;1.60;;
27257;SDS011;62045;49.986;8.672;2023-03-19T10:51:51;2.70;;;1.20;;
27257;SDS011;62045;49.986;8.672;2023-03-19T10:56:56;2.78;;;1.42;;
27257;SDS011;62045;49.986;8.672;2023-03-19T11:02:00;5.27;;;1.43;;
27257;SDS011;62045;49.986;8.672;2023-03-19T11:07:09;3.35;;;1.38;;
27257;SDS011;62045;49.986;8.672;2023-03-19T11:12:16;3.70;;;1.60;;
27257;SDS011;62045;49.986;8.672;2023-03-19T11:17:24;6.72;;;1.10;;
27257;SDS011;62045;49.986;8.672;2023-03-19T11:22:28;3.60;;;1.40;;
27257;SDS011;62045;49.986;8.672;2023-03-19T11:27:31;2.88;;;1.17;;
27257;SDS011;62045;49.986;8.672;2023-03-19T11:32:52;2.78;;;1.30;;
27257;SDS011;62045;49.986;8.672;2023-03-19T11:38:22;2.75;;;1.20;;
27257;SDS011;62045;49.986;8.672;2023-03-19T11:43:33;4.40;;;1.20;;
27257;SDS011;62045;49.986;8.672;2023-03-19T11:48:56;5.18;;;1.10;;
27257;SDS011;62045;49.986;8.672;2023-03-19T11:54:10;3.08;;;1.40;;
27257;SDS011;62045;49.986;8.672;2023-03-19T11:59:29;2.22;;;1.00;;
27257;SDS011;62045;49.986;8.672;2023-03-19T12:04:41;2.97;;;1.30;;
27257;SDS011;62045;49.986;8.672;2023-03-19T12:10:01;2.53;;;1.00;;
27257;SDS011;62045;49.986;8.672;2023-03-19T12:15:17;3.78;;;1.52;;
27257;SDS011;62045;49.986;8.672;2023-03-19T12:20:40;3.00;;;1.33;;
27257;SDS011;62045;49.986;8.672;2023-03-19T12:26:01;2.67;;;1.30;;
27257;SDS011;62045;49.986;8.672;2023-03-19T12:36:40;4.32;;;1.00;;
27257;SDS011;62045;49.986;8.672;2023-03-19T12:41:47;3.85;;;1.00;;
27257;SDS011;62045;49.986;8.672;2023-03-19T12:46:52;5.60;;;1.93;;
27257;SDS011;62045;49.986;8.672;2023-03-19T12:51:58;7.32;;;1.88;;
27257;SDS011;62045;49.986;8.672;2023-03-19T12:57:03;3.88;;;1.60;;
27257;SDS011;62045;49.986;8.672;2023-03-19T13:02:10;4.22;;;1.40;;
27257;SDS011;62045;49.986;8.672;2023-03-19T13:07:23;5.68;;;1.48;;
27257;SDS011;62045;49.986;8.672;2023-03-19T13:12:29;2.40;;;1.13;;
27257;SDS011;62045;49.986;8.672;2023-03-19T13:17:34;4.43;;;1.00;;
27257;SDS011;62045;49.986;8.672;2023-03-19T13:22:41;2.15;;;1.05;;
27257;SDS011;62045;49.986;8.672;2023-03-19T13:27:50;3.38;;;1.15;;
27257;SDS011;62045;49.986;8.672;2023-03-19T13:32:59;3.53;;;1.88;;
27257;SDS011;62045;49.986;8.672;2023-03-19T13:38:04;2.63;;;1.17;;
27257;SDS011;62045;49.986;8.672;2023-03-19T13:48:51;4.43;;;1.30;;
27257;SDS011;62045;49.986;8.672;2023-03-19T13:53:58;2.10;;;1.08;;
27257;SDS011;62045;49.986;8.672;2023-03-19T13:59:20;4.05;;;1.10;;
27257;SDS011;62045;49.986;8.672;2023-03-19T14:04:24;3.30;;;1.08;;
27257;SDS011;62045;49.986;8.672;2023-03-19T14:09:29;4.13;;;1.13;;
27257;SDS011;62045;49.986;8.672;2023-03-19T14:14:38;2.88;;;1.13;;
27257;SDS011;62045;49.986;8.672;2023-03-19T14:19:40;2.03;;;1.02;;
27257;SDS011;62045;49.986;8.672;2023-03-19T14:24:42;3.10;;;1.30;;
27257;SDS011;62045;49.986;8.672;2023-03-19T14:29:54;3.93;;;1.00;;
27257;SDS011;62045;49.986;8.672;2023-03-19T14:34:56;3.28;;;1.08;;
27257;SDS011;62045;49.986;8.672;2023-03-19T14:40:01;8.13;;;1.20;;
27257;SDS011;62045;49.986;8.672;2023-03-19T14:50:55;4.30;;;1.70;;
27257;SDS011;62045;49.986;8.672;2023-03-19T14:56:14;7.55;;;3.33;;
27257;SDS011;62045;49.986;8.672;2023-03-19T15:01:18;4.82;;;2.40;;
27257;SDS011;62045;49.986;8.672;2023-03-19T15:06:19;5.00;;;2.55;;
27257;SDS011;62045;49.986;8.672;2023-03-19T15:11:26;5.25;;;2.40;;
27257;SDS011;62045;49.986;8.672;2023-03-19T15:16:43;5.30;;;1.80;;
27257;SDS011;62045;49.986;8.672;2023-03-19T15:21:51;3.05;;;1.60;;
27257;SDS011;62045;49.986;8.672;2023-03-19T15:27:15;4.13;;;2.00;;
27257;SDS011;62045;49.986;8.672;2023-03-19T15:32:29;4.13;;;1.77;;
27257;SDS011;62045;49.986;8.672;2023-03-19T15:37:31;4.20;;;1.83;;
27257;SDS011;62045;49.986;8.672;2023-03-19T15:42:36;2.75;;;1.48;;
27257;SDS011;62045;49.986;8.672;2023-03-19T15:47:38;3.40;;;1.75;;
27257;SDS011;62045;49.986;8.672;2023-03-19T15:52:44;2.67;;;1.40;;
27257;SDS011;62045;49.986;8.672;2023-03-19T15:57:51;3.08;;;1.30;;
27257;SDS011;62045;49.986;8.672;2023-03-19T16:02:53;3.08;;;1.35;;
27257;SDS011;62045;49.986;8.672;2023-03-19T16:07:57;3.00;;;1.58;;
27257;SDS011;62045;49.986;8.672;2023-03-19T16:13:00;2.60;;;1.20;;
27257;SDS011;62045;49.986;8.672;2023-03-19T16:23:20;2.70;;;1.17;;
27257;SDS011;62045;49.986;8.672;2023-03-19T16:28:28;3.75;;;1.35;;
27257;SDS011;62045;49.986;8.672;2023-03-19T16:33:28;2.70;;;1.30;;
27257;SDS011;62045;49.986;8.672;2023-03-19T16:38:29;2.38;;;1.30;;
27257;SDS011;62045;49.986;8.672;2023-03-19T16:43:45;2.38;;;1.48;;
27257;SDS011;62045;49.986;8.672;2023-03-19T16:48:46;2.30;;;1.03;;
27257;SDS011;62045;49.986;8.672;2023-03-19T16:53:46;2.40;;;0.95;;
27257;SDS011;62045;49.986;8.672;2023-03-19T16:58:49;2.47;;;1.00;;
27257;SDS011;62045;49.986;8.672;2023-03-19T17:03:50;2.80;;;1.00;;
27257;SDS011;62045;49.986;8.672;2023-03-19T17:08:51;2.25;;;0.95;;
27257;SDS011;62045;49.986;8.672;2023-03-19T17:13:53;2.25;;;1.00;;
27257;SDS011;62045;49.986;8.672;2023-03-19T17:18:56;2.42;;;1.27;;
27257;SDS011;62045;49.986;8.672;2023-03-19T17:23:58;2.70;;;1.20;;
27257;SDS011;62045;49.986;8.672;2023-03-19T17:29:01;2.50;;;1.10;;
27257;SDS011;62045;49.986;8.672;2023-03-19T17:34:03;2.53;;;1.13;;
27257;SDS011;62045;49.986;8.672;2023-03-19T17:39:05;1.85;;;1.00;;
27257;SDS011;62045;49.986;8.672;2023-03-19T17:44:08;3.00;;;1.35;;
27257;SDS011;62045;49.986;8.672;2023-03-19T17:49:11;2.22;;;0.90;;
27257;SDS011;62045;49.986;8.672;2023-03-19T17:54:15;1.75;;;0.88;;
27257;SDS011;62045;49.986;8.672;2023-03-19T17:59:18;4.07;;;1.13;;
27257;SDS011;62045;49.986;8.672;2023-03-19T18:04:19;1.70;;;0.90;;
27257;SDS011;62045;49.986;8.672;2023-03-19T18:09:21;1.73;;;0.80;;
27257;SDS011;62045;49.986;8.672;2023-03-19T18:14:25;2.20;;;1.20;;
27257;SDS011;62045;49.986;8.672;2023-03-19T18:19:27;2.30;;;0.85;;
27257;SDS011;62045;49.986;8.672;2023-03-19T18:24:30;1.52;;;0.77;;
27257;SDS011;62045;49.986;8.672;2023-03-19T18:29:32;3.38;;;0.80;;
27257;SDS011;62045;49.986;8.672;2023-03-19T18:34:33;1.83;;;0.85;;
27257;SDS011;62045;49.986;8.672;2023-03-19T18:39:34;2.85;;;1.10;;
27257;SDS011;62045;49.986;8.672;2023-03-19T18:44:36;2.30;;;1.08;;
27257;SDS011;62045;49.986;8.672;2023-03-19T18:49:37;1.63;;;0.90;;
27257;SDS011;62045;49.986;8.672;2023-03-19T18:54:37;1.92;;;0.88;;
27257;SDS011;62045;49.986;8.672;2023-03-19T18:59:40;2.03;;;0.95;;
27257;SDS011;62045;49.986;8.672;2023-03-19T19:04:40;1.70;;;0.80;;
27257;SDS011;62045;49.986;8.672;2023-03-19T19:09:41;2.08;;;0.80;;
27257;SDS011;62045;49.986;8.672;2023-03-19T19:14:43;2.28;;;0.77;;
27257;SDS011;62045;49.986;8.672;2023-03-19T19:19:44;2.10;;;0.98;;
27257;SDS011;62045;49.986;8.672;2023-03-19T19:24:45;2.03;;;0.82;;
27257;SDS011;62045;49.986;8.672;2023-03-19T19:29:47;3.75;;;0.90;;
27257;SDS011;62045;49.986;8.672;2023-03-19T19:34:49;3.70;;;0.80;;
27257;SDS011;62045;49.986;8.672;2023-03-19T19:39:50;2.08;;;0.95;;
27257;SDS011;62045;49.986;8.672;2023-03-19T19:44:52;1.75;;;0.80;;
27257;SDS011;62045;49.986;8.672;2023-03-19T19:49:55;1.77;;;0.80;;
27257;SDS011;62045;49.986;8.672;2023-03-19T19:54:56;2.03;;;0.70;;
27257;SDS011;62045;49.986;8.672;2023-03-19T19:59:58;1.98;;;0.60;;
27257;SDS011;62045;49.986;8.672;2023-03-19T20:04:58;1.98;;;0.90;;
27257;SDS011;62045;49.986;8.672;2023-03-19T20:09:59;2.35;;;0.95;;
27257;SDS011;62045;49.986;8.672;2023-03-19T20:15:01;2.60;;;0.70;;
27257;SDS011;62045;49.986;8.672;2023-03-19T20:20:03;2.22;;;0.85;;
27257;SDS011;62045;49.986;8.672;2023-03-19T20:25:09;2.35;;;1.00;;
27257;SDS011;62045;49.986;8.672;2023-03-19T20:30:18;1.38;;;0.70;;
27257;SDS011;62045;49.986;8.672;2023-03-19T20:35:22;1.95;;;0.75;;
27257;SDS011;62045;49.986;8.672;2023-03-19T20:40:25;1.88;;;0.80;;
27257;SDS011;62045;49.986;8.672;2023-03-19T20:45:31;2.25;;;0.90;;
27257;SDS011;62045;49.986;8.672;2023-03-19T20:50:34;1.63;;;0.75;;
27257;SDS011;62045;49.986;8.672;2023-03-19T20:55:35;2.13;;;0.90;;
27257;SDS011;62045;49.986;8.672;2023-03-19T21:00:39;1.40;;;0.70;;
27257;SDS011;62045;49.986;8.672;2023-03-19T21:05:40;1.80;;;0.80;;
27257;SDS011;62045;49.986;8.672;2023-03-19T21:10:41;2.03;;;0.80;;
27257;SDS011;62045;49.986;8.672;2023-03-19T21:15:44;1.38;;;0.70;;
27257;SDS011;62045;49.986;8.672;2023-03-19T21:20:46;2.60;;;1.10;;
27257;SDS011;62045;49.986;8.672;2023-03-19T21:25:49;1.50;;;0.73;;
27257;SDS011;62045;49.986;8.672;2023-03-19T21:30:51;1.67;;;0.90;;
27257;SDS011;62045;49.986;8.672;2023-03-19T21:35:52;1.80;;;0.80;;
27257;SDS011;62045;49.986;8.672;2023-03-19T21:40:55;1.98;;;0.85;;
27257;SDS011;62045;49.986;8.672;2023-03-19T21:45:58;2.75;;;0.90;;
27257;SDS011;62045;49.986;8.672;2023-03-19T21:51:00;2.55;;;1.20;;
27257;SDS011;62045;49.986;8.672;2023-03-19T21:56:01;1.33;;;0.73;;
27257;SDS011;62045;49.986;8.672;2023-03-19T22:01:05;2.00;;;1.05;;
27257;SDS011;62045;49.986;8.672;2023-03-19T22:06:11;2.00;;;0.93;;
27257;SDS011;62045;49.986;8.672;2023-03-19T22:11:12;3.20;;;0.80;;
27257;SDS011;62045;49.986;8.672;2023-03-19T22:16:18;2.50;;;1.00;;
27257;SDS011;62045;49.986;8.672;2023-03-19T22:21:20;1.60;;;0.73;;
27257;SDS011;62045;49.986;8.672;2023-03-19T22:26:26;2.65;;;1.00;;
27257;SDS011;62045;49.986;8.672;2023-03-19T22:31:30;2.35;;;1.00;;
27257;SDS011;62045;49.986;8.672;2023-03-19T22:36:31;1.97;;;0.90;;
27257;SDS011;62045;49.986;8.672;2023-03-19T22:41:33;3.17;;;1.05;;
27257;SDS011;62045;49.986;8.672;2023-03-19T22:46:37;2.45;;;1.30;;
27257;SDS011;62045;49.986;8.672;2023-03-19T22:51:37;1.80;;;0.90;;
27257;SDS011;62045;49.986;8.672;2023-03-19T22:56:38;1.85;;;1.00;;
27257;SDS011;62045;49.986;8.672;2023-03-19T23:01:40;1.73;;;0.90;;
27257;SDS011;62045;49.986;8.672;2023-03-19T23:06:43;2.30;;;1.00;;
27257;SDS011;62045;49.986;8.672;2023-03-19T23:11:45;2.72;;;0.80;;
27257;SDS011;62045;49.986;8.672;2023-03-19T23:16:47;2.40;;;0.85;;
27257;SDS011;62045;49.986;8.672;2023-03-19T23:21:49;1.27;;;0.70;;
27257;SDS011;62045;49.986;8.672;2023-03-19T23:26:50;1.52;;;0.85;;
27257;SDS011;62045;49.986;8.672;2023-03-19T23:31:54;1.50;;;0.83;;
27257;SDS011;62045;49.986;8.672;2023-03-19T23:36:55;1.83;;;0.95;;
27257;SDS011;62045;49.986;8.672;2023-03-19T23:41:56;2.65;;;1.45;;
27257;SDS011;62045;49.986;8.672;2023-03-19T23:46:58;1.88;;;0.85;;
27257;SDS011;62045;49.986;8.672;2023-03-19T23:52:00;2.13;;;0.90;;
27257;SDS011;62045;49.986;8.672;2023-03-19T23:57:02;3.33;;;1.00;;
